Time;durP1;ratioP1;P1;durP2;ratioP2;P2;SDS_P1;SDS_P2;PMS_P1;PMS_P2;Temp;Humidity;BMP_temperature;BMP_pressure;BME280_temperature;BME280_humidity;BME280_pressure;Samples;Min_cycle;Max_cycle;Signal;HPM_P1;HPM_P2
2021/03/29 00:01:34;;;;;;;2.13;1.58;;;;;;;;;;5045042;28;20919;-77
2021/03/29 00:04:01;;;;;;;1.60;1.25;;;;;;;;;;5051355;28;20386;-77
2021/03/29 00:06:27;;;;;;;4.55;1.45;;;;;;;;;;5050079;28;20474;-79
2021/03/29 00:08:55;;;;;;;1.50;1.30;;;;;;;;;;5050808;28;20424;-78
2021/03/29 00:11:22;;;;;;;2.67;1.08;;;;;;;;;;5049943;28;20454;-81
2021/03/29 00:13:48;;;;;;;2.33;1.30;;;;;;;;;;5051082;28;20496;-79
2021/03/29 00:16:15;;;;;;;1.88;1.15;;;;;;;;;;5050751;28;20374;-78
2021/03/29 00:18:41;;;;;;;1.88;1.20;;;;;;;;;;5032407;28;21053;-79
2021/03/29 00:21:08;;;;;;;2.22;1.38;;;;;;;;;;5050690;28;20405;-78
2021/03/29 00:23:35;;;;;;;1.20;1.10;;;;;;;;;;5029053;28;20870;-78
2021/03/29 00:26:01;;;;;;;1.70;1.03;;;;;;;;;;5050613;28;20449;-78
2021/03/29 00:28:27;;;;;;;2.00;1.40;;;;;;;;;;5049784;28;20382;-77
2021/03/29 00:30:54;;;;;;;1.63;1.40;;;;;;;;;;5050546;28;20373;-78
2021/03/29 00:33:21;;;;;;;2.03;1.27;;;;;;;;;;5050646;28;20376;-77
2021/03/29 00:35:49;;;;;;;3.53;1.45;;;;;;;;;;5050549;28;20384;-79
2021/03/29 00:38:15;;;;;;;1.20;1.10;;;;;;;;;;5050290;28;20710;-78
2021/03/29 00:40:47;;;;;;;1.70;1.40;;;;;;;;;;5031521;28;20421;-78
2021/03/29 00:43:15;;;;;;;3.65;1.70;;;;;;;;;;5050786;28;20464;-78
2021/03/29 00:45:42;;;;;;;2.35;1.58;;;;;;;;;;5049744;28;21051;-79
2021/03/29 00:48:09;;;;;;;2.60;1.20;;;;;;;;;;5050716;28;20455;-78
2021/03/29 00:50:44;;;;;;;1.48;1.30;;;;;;;;;;5049591;28;20833;-78
2021/03/29 00:53:11;;;;;;;1.92;1.40;;;;;;;;;;5050818;28;20454;-79
2021/03/29 00:55:44;;;;;;;2.00;1.42;;;;;;;;;;5049416;28;20452;-79
2021/03/29 00:58:10;;;;;;;1.57;0.90;;;;;;;;;;5032679;28;20695;-79
2021/03/29 01:00:42;;;;;;;1.77;1.13;;;;;;;;;;5031825;28;20436;-79
2021/03/29 01:03:11;;;;;;;2.30;1.40;;;;;;;;;;5050412;28;20873;-78
2021/03/29 01:05:36;;;;;;;4.63;1.20;;;6.60;99.90;;;;;;5049885;28;20428;-79
2021/03/29 01:08:03;;;;;;;2.13;1.38;;;;;;;;;;5032329;28;20942;-77
2021/03/29 01:10:29;;;;;;;3.70;1.20;;;;;;;;;;5041274;28;20391;-80
2021/03/29 01:13:01;;;;;;;2.35;1.15;;;;;;;;;;5050027;28;20820;-78
2021/03/29 01:15:28;;;;;;;1.52;1.20;;;;;;;;;;5049522;28;20887;-77
2021/03/29 01:17:54;;;;;;;1.48;1.00;;;;;;;;;;5050184;28;20362;-77
2021/03/29 01:20:35;;;;;;;1.60;0.93;;;;;;;;;;5049839;28;20464;-77
2021/03/29 01:23:02;;;;;;;2.78;1.38;;;;;;;;;;5050052;28;20765;-76
2021/03/29 01:25:35;;;;;;;1.83;1.20;;;;;;;;;;5048983;28;20566;-77
2021/03/29 01:28:02;;;;;;;2.35;1.38;;;;;;;;;;5049748;28;20366;-76
2021/03/29 01:30:31;;;;;;;2.00;1.20;;;;;;;;;;5031169;28;20857;-77
2021/03/29 01:32:58;;;;;;;1.20;1.05;;;;;;;;;;5049720;28;20370;-77
2021/03/29 01:35:28;;;;;;;1.20;1.10;;;;;;;;;;5032013;28;20485;-80
2021/03/29 01:37:54;;;;;;;2.22;1.10;;;;;;;;;;5049829;28;20369;-77
2021/03/29 01:40:21;;;;;;;1.30;1.10;;;;;;;;;;5041012;28;20436;-77
2021/03/29 01:42:47;;;;;;;1.77;1.10;;;;;;;;;;5048770;28;21139;-77
2021/03/29 01:45:14;;;;;;;1.67;1.20;;;;;;;;;;5049936;28;20370;-77
2021/03/29 01:47:40;;;;;;;2.95;1.27;;;;;;;;;;5048903;28;20397;-77
2021/03/29 01:50:08;;;;;;;2.42;0.90;;;;;;;;;;5036451;28;20379;-77
2021/03/29 01:52:34;;;;;;;1.17;1.00;;;;;;;;;;5032640;28;20383;-77
2021/03/29 01:55:01;;;;;;;1.40;1.20;;;;;;;;;;5033366;28;20383;-77
2021/03/29 01:57:27;;;;;;;1.98;1.30;;;;;;;;;;5032737;28;20859;-80
2021/03/29 01:59:54;;;;;;;1.83;1.15;;;;;;;;;;5032849;28;20371;-77
2021/03/29 02:02:20;;;;;;;3.60;1.48;;;;;;;;;;5015440;28;20497;-77
2021/03/29 02:04:47;;;;;;;2.27;1.53;;;;;;;;;;5032346;28;20801;-77
2021/03/29 02:07:13;;;;;;;3.25;1.10;;;;;;;;;;5032962;28;20375;-77
2021/03/29 02:09:39;;;;;;;2.40;1.40;;;;;;;;;;5032092;28;20415;-77
2021/03/29 02:12:09;;;;;;;1.80;1.20;;;;;;;;;;5033035;28;20468;-78
2021/03/29 02:14:35;;;;;;;3.55;1.52;;;;;;;;;;5032173;28;20712;-78
2021/03/29 02:17:04;;;;;;;1.10;0.80;;;;;;;;;;5033135;28;20758;-77
2021/03/29 02:19:31;;;;;;;1.67;0.95;;;;;;;;;;5031949;28;20879;-80
2021/03/29 02:21:57;;;;;;;1.50;1.00;;;;;;;;;;5032957;28;20485;-78
2021/03/29 02:24:23;;;;;;;0.80;0.70;;;;;;;;;;5033074;28;20380;-77
2021/03/29 02:26:50;;;;;;;1.20;1.10;;;;;;;;;;5031974;28;20375;-77
2021/03/29 02:29:28;;;;;;;0.88;0.77;;;;;;;;;;5032851;28;20417;-77
2021/03/29 02:31:55;;;;;;;1.10;0.93;;;;;;;;;;5032126;28;20394;-78
2021/03/29 02:34:22;;;;;;;1.25;1.08;;;;;;;;;;5032615;28;20695;-78
2021/03/29 02:36:48;;;;;;;2.00;1.17;;;;;;;;;;5031916;28;20453;-78
2021/03/29 02:39:14;;;;;;;2.30;1.10;;;;;;;;;;5032571;28;20367;-77
2021/03/29 02:41:40;;;;;;;1.27;1.02;;;;;;;;;;5031673;28;20514;-78
2021/03/29 02:44:07;;;;;;;1.83;0.80;;;;;;;;;;5032326;28;20375;-77
2021/03/29 02:46:33;;;;;;;1.07;0.90;;;;;;;;;;5031404;28;20415;-78
2021/03/29 02:49:02;;;;;;;1.58;1.10;;;;;;;;;;5037182;28;20822;-78
2021/03/29 02:51:29;;;;;;;1.50;1.20;;;;;;;;;;5052231;28;20405;-79
2021/03/29 02:53:57;;;;;;;1.70;1.20;;;;;;;;;;5052172;28;20366;-79
2021/03/29 02:56:25;;;;;;;2.10;0.80;;;;;;;;;;5052054;28;20397;-80
2021/03/29 02:58:57;;;;;;;1.13;0.98;;;;;;;;;;5051252;28;20435;-78
2021/03/29 03:01:24;;;;;;;1.50;1.40;;;;;;;;;;5051639;28;20880;-78
2021/03/29 03:03:52;;;;;;;2.17;1.10;;;;;;;;;;5051521;28;20936;-79
2021/03/29 03:06:19;;;;;;;1.73;1.40;;;;;;;;;;5052159;28;20370;-78
2021/03/29 03:08:45;;;;;;;2.60;0.90;;;;;;;;;;5050963;28;20412;-78
2021/03/29 03:11:12;;;;;;;3.50;1.20;;;;;;;;;;5051656;28;20872;-78
2021/03/29 03:13:39;;;;;;;1.15;1.00;;;;;;;;;;5050971;28;20710;-78
2021/03/29 03:16:06;;;;;;;1.80;1.33;;;;;;;;;;5051981;28;20373;-78
2021/03/29 03:18:32;;;;;;;2.00;1.15;;;;;;;;;;5033570;28;20407;-81
2021/03/29 03:20:58;;;;;;;1.15;1.00;;;;;;;;;;5051574;28;20405;-78
2021/03/29 03:23:24;;;;;;;1.90;1.30;;;;;;;;;;5051666;28;20381;-78
2021/03/29 03:25:51;;;;;;;2.20;0.90;;;;;;;;;;5033283;28;20959;-78
2021/03/29 03:28:18;;;;;;;2.30;1.10;;;;;;;;;;5051640;28;20385;-78
2021/03/29 03:30:49;;;;;;;1.08;0.98;;;;;;;;;;5050997;28;20467;-78
2021/03/29 03:33:16;;;;;;;2.60;1.20;;;;;;;;;;5051634;28;20416;-78
2021/03/29 03:35:42;;;;;;;1.10;0.90;;;;;;;;;;5050741;28;20370;-78
2021/03/29 03:38:22;;;;;;;5.10;1.30;;;;;;;;;;5051520;28;20419;-78
2021/03/29 03:40:54;;;;;;;2.10;1.10;;;;;;;;;;5050506;28;20429;-77
2021/03/29 03:43:21;;;;;;;2.17;1.30;;;;;;;;;;5051450;28;20414;-78
2021/03/29 03:45:53;;;;;;;1.85;1.33;;;;;;;;;;5050287;28;20377;-78
2021/03/29 03:48:21;;;;;;;1.80;1.20;;;;;;;;;;5051378;28;20382;-78
2021/03/29 03:50:48;;;;;;;1.60;1.17;;;;;;;;;;5050401;28;20394;-78
2021/03/29 03:53:15;;;;;;;2.63;1.25;;;;;;;;;;5033414;28;20374;-78
2021/03/29 03:55:41;;;;;;;1.70;1.10;;;;;;;;;;5032463;28;20840;-78
2021/03/29 03:58:08;;;;;;;2.00;1.17;;;;;;;;;;5051030;28;20405;-77
2021/03/29 04:00:35;;;;;;;2.72;1.50;;;;;;;;;;5037857;28;20382;-79
2021/03/29 04:03:01;;;;;;;3.42;1.00;;;;;;;;;;5031160;28;20367;-76
2021/03/29 04:05:27;;;;;;;1.90;0.93;;;;;;;;;;5031497;28;20379;-77
2021/03/29 04:07:55;;;;;;;1.70;0.82;;;;;;;;;;5030569;28;20371;-78
2021/03/29 04:10:37;;;;;;;2.78;1.30;;;;;;;;;;5031269;28;20387;-78
2021/03/29 04:13:06;;;;;;;1.15;1.05;;;;;;;;;;5030855;28;20395;-77
2021/03/29 04:15:33;;;;;;;1.20;0.95;;;;;;;;;;5031213;28;20453;-77
2021/03/29 04:17:58;;;;;;;1.70;0.98;;;;;;;;;;5012712;28;20863;-78
2021/03/29 04:20:25;;;;;;;1.08;0.80;;;;;;;;;;5043728;28;20373;-78
2021/03/29 04:22:51;;;;;;;1.23;1.00;;;;;;;;;;5051076;28;20374;-78
2021/03/29 04:25:17;;;;;;;2.10;1.10;;;;;;;;;;5050942;28;20390;-78
2021/03/29 04:27:44;;;;;;;2.25;1.38;;;;;;;;;;5049862;28;20785;-78
2021/03/29 04:30:12;;;;;;;1.17;0.90;;;;;;;;;;5050994;28;20892;-78
2021/03/29 04:32:39;;;;;;;1.90;1.60;;;;;;;;;;5050050;28;20383;-80
2021/03/29 04:35:06;;;;;;;1.42;0.95;;;;;;;;;;5051095;28;20480;-78
2021/03/29 04:37:32;;;;;;;0.90;0.90;;;;;;;;;;5050833;28;20366;-78
2021/03/29 04:39:58;;;;;;;1.20;0.90;;;;;;;;;;5050013;28;20873;-78
2021/03/29 04:42:24;;;;;;;4.30;1.50;;;;;;;;;;5050832;28;20431;-78
2021/03/29 04:44:50;;;;;;;1.90;1.30;;;;;;;;;;5049930;28;20723;-77
2021/03/29 04:47:16;;;;;;;2.45;1.40;;;;;;;;;;5033168;28;20844;-78
2021/03/29 04:49:42;;;;;;;2.15;1.42;;;;;;;;;;5038949;28;20383;-78
2021/03/29 04:52:09;;;;;;;2.50;1.20;;;;;;;;;;5013665;28;20522;-78
2021/03/29 04:54:35;;;;;;;2.42;1.55;;;;;;;;;;5032722;28;20375;-77
2021/03/29 04:57:01;;;;;;;2.20;1.80;;;;;;;;;;5030264;28;20386;-78
2021/03/29 04:59:27;;;;;;;1.40;1.27;;;;;;;;;;5030801;28;20386;-77
2021/03/29 05:01:53;;;;;;;2.00;0.82;;;;;;;;;;5029792;28;20403;-78
2021/03/29 05:04:20;;;;;;;2.30;1.00;;;;;;;;;;5030752;28;20422;-77
2021/03/29 05:18:28;;;;;;;2.10;1.40;;;;;;;;;;5291634;23;20437;-78
2021/03/29 05:20:55;;;;;;;1.70;1.20;;;;;;;;;;5050596;28;20417;-78
2021/03/29 05:23:21;;;;;;;1.20;1.10;;;;;;;;;;5050182;28;20396;-78
2021/03/29 05:25:47;;;;;;;1.30;1.20;;;;;;;;;;5052612;28;20377;-78
2021/03/29 05:28:43;;;;;;;1.90;1.63;;;;;;;;;;5053202;28;20384;-79
2021/03/29 05:31:09;;;;;;;2.10;1.20;;;;;;;;;;5042696;28;20480;-78
2021/03/29 05:45:13;;;;;;;0.93;0.82;;;;;;;;;;5286400;23;20951;-67
2021/03/29 05:47:40;;;;;;;1.30;1.20;;;;;;;;;;5043188;28;20421;-67
2021/03/29 05:50:08;;;;;;;1.80;1.17;;;;;;;;;;5043750;28;20373;-68
2021/03/29 05:52:34;;;;;;;2.00;1.30;;;;;;;;;;5054285;28;20480;-67
2021/03/29 05:55:01;;;;;;;1.60;1.37;;;;;;;;;;5051752;28;20393;-68
2021/03/29 05:57:38;;;;;;;1.97;1.23;;;;;;;;;;5052609;28;20847;-67
2021/03/29 06:00:36;;;;;;;1.75;1.20;;;4.90;99.90;;;;;;5053262;28;20373;-67
2021/03/29 06:03:21;;;;;;;1.38;1.23;;;;;;;;;;5053261;28;20453;-67
2021/03/29 06:05:47;;;;;;;1.90;1.30;;;;;;;;;;5042869;28;20395;-68
2021/03/29 06:08:14;;;;;;;1.00;0.90;;;;;;;;;;5053910;28;20725;-68
2021/03/29 06:10:40;;;;;;;3.00;1.30;;;;;;;;;;5053728;28;20380;-67
2021/03/29 06:13:16;;;;;;;1.30;1.20;;;;;;;;;;5052914;28;21229;-68
2021/03/29 06:15:43;;;;;;;1.77;1.60;;;;;;;;;;5053010;28;20461;-72
2021/03/29 06:18:13;;;;;;;2.30;1.42;;;;;;;;;;5051797;28;20378;-68
2021/03/29 06:20:57;;;;;;;2.90;1.30;;;5.60;99.90;;;;;;5049811;28;20392;-69
2021/03/29 06:23:23;;;;;;;2.78;1.35;;;;;;;;;;5052013;28;20427;-69
2021/03/29 06:25:49;;;;;;;2.03;1.40;;;;;;;;;;5066895;28;20464;-69
2021/03/29 06:28:26;;;;;;;1.60;1.30;;;;;;;;;;5073663;28;20427;-69
2021/03/29 06:30:53;;;;;;;1.40;1.00;;;;;;;;;;5072232;28;20376;-69
2021/03/29 06:33:19;;;;;;;2.00;1.40;;;;;;;;;;5055392;28;20411;-69
2021/03/29 06:35:46;;;;;;;1.30;1.10;;;;;;;;;;5054078;28;20740;-73
2021/03/29 06:38:14;;;;;;;1.90;1.40;;;;;;;;;;5072696;28;20372;-69
2021/03/29 06:40:44;;;;;;;2.30;1.50;;;;;;;;;;5072845;28;20445;-69
2021/03/29 06:43:28;;;;;;;2.40;1.10;;;;;;;;;;5071934;28;20372;-69
2021/03/29 06:45:59;;;;;;;1.50;1.15;;;;;;;;;;5071619;28;20403;-68
2021/03/29 06:48:28;;;;;;;1.65;1.55;;;;;;;;;;5072142;28;20378;-69
2021/03/29 06:51:09;;;;;;;1.50;1.13;;;;;;;;;;5053880;28;20384;-68
2021/03/29 06:54:07;;;;;;;1.75;1.33;;;;;;;;;;5067271;28;20475;-68
2021/03/29 06:56:35;;;;;;;4.45;1.52;;;;;;;;;;5047013;28;20417;-68
2021/03/29 07:29:58;;;;;;;1.77;1.48;;;;;;;;;;5280046;23;20426;-75
2021/03/29 07:32:36;;;;;;;2.03;1.40;;;;;;;;;;5071213;28;20395;-75
2021/03/29 07:35:03;;;;;;;1.55;1.40;;;;;;;;;;5058206;28;20373;-73
2021/03/29 07:37:36;;;;;;;2.10;1.20;;;;;;;;;;5051948;28;20468;-74
2021/03/29 07:40:04;;;;;;;1.52;1.38;;;;;;;;;;5072033;28;20419;-74
2021/03/29 07:42:35;;;;;;;2.90;1.50;;;;;;;;;;5071868;28;20408;-73
2021/03/29 07:45:05;;;;;;;3.60;1.70;;;;;;;;;;5071609;28;20403;-73
2021/03/29 07:47:45;;;;;;;1.73;1.40;;;;;;;;;;5058253;28;20421;-74
2021/03/29 07:50:19;;;;;;;3.05;1.35;;;;;;;;;;5051649;28;20377;-73
2021/03/29 07:52:52;;;;;;;2.60;1.42;;;;;;;;;;5051408;28;20459;-74
2021/03/29 07:55:24;;;;;;;1.60;1.20;;;;;;;;;;5033278;28;20397;-76
2021/03/29 08:06:45;;;;;;;1.50;1.30;;;;;;;;;;4965937;23;21981;-73
2021/03/29 08:20:52;;;;;;;1.88;1.35;;;;;;;;;;5071851;23;20787;-76
2021/03/29 08:23:31;;;;;;;3.65;1.50;;;;;;;;;;5061369;28;20403;-76
2021/03/29 08:26:12;;;;;;;1.98;1.60;;;;;;;;;;5060876;28;20385;-76
2021/03/29 08:29:01;;;;;;;3.27;1.47;;;;;;;;;;5051360;28;20385;-76
2021/03/29 08:31:45;;;;;;;1.10;0.90;;;;;;;;;;5049512;28;20374;-76
2021/03/29 08:39:45;;;;;;;4.47;1.50;;;;;;;;;;5157900;22;20426;-76
2021/03/29 08:42:12;;;;;;;2.92;1.33;;;;;;;;;;5029747;28;20421;-72
2021/03/29 08:44:42;;;;;;;1.20;1.10;;;;;;;;;;5041242;28;20473;-73
2021/03/29 08:47:19;;;;;;;1.27;1.05;;;;;;;;;;5046526;28;20389;-72
2021/03/29 08:49:46;;;;;;;2.30;1.25;;;;;;;;;;5031027;28;20383;-73
2021/03/29 08:52:13;;;;;;;1.70;1.30;;;;;;;;;;5035147;28;20378;-72
2021/03/29 08:54:49;;;;;;;1.90;1.30;;;;;;;;;;5050831;28;20468;-72
2021/03/29 08:57:15;;;;;;;2.17;1.20;;;;;;;;;;5050435;28;20376;-73
2021/03/29 08:59:41;;;;;;;1.77;1.25;;;;;;;;;;5053667;28;20377;-73
2021/03/29 09:02:14;;;;;;;2.58;1.23;;;;;;;;;;5037974;28;20894;-73
2021/03/29 09:04:48;;;;;;;1.73;1.60;;;;;;;;;;5034848;28;20881;-73
2021/03/29 09:07:14;;;;;;;1.90;1.30;;;;;;;;;;5034766;28;20375;-73
2021/03/29 09:09:40;;;;;;;1.17;1.05;;;;;;;;;;5034969;28;20418;-74
2021/03/29 09:12:06;;;;;;;1.42;1.33;;;;;;;;;;5034190;28;20433;-73
2021/03/29 09:14:35;;;;;;;2.55;1.80;;;;;;;;;;5034861;28;20438;-73
2021/03/29 09:17:01;;;;;;;3.40;1.70;;;;;;;;;;5034680;28;20382;-73
2021/03/29 09:19:28;;;;;;;3.10;1.90;;;;;;;;;;5053027;28;20374;-72
2021/03/29 09:21:55;;;;;;;2.97;1.77;;;;;;;;;;5054823;28;20433;-71
2021/03/29 09:24:25;;;;;;;2.88;1.95;;;;;;;;;;5053720;28;20413;-73
2021/03/29 09:27:12;;;;;;;2.63;1.50;;;;;;;;;;5054545;28;20389;-72
2021/03/29 09:29:41;;;;;;;2.25;1.50;;;;;;;;;;5054440;28;20384;-71
2021/03/29 09:32:09;;;;;;;2.58;1.40;;;;;;;;;;5053383;28;20381;-76
2021/03/29 09:34:36;;;;;;;1.40;1.10;;;;;;;;;;5054137;28;20457;-73
2021/03/29 09:37:03;;;;;;;2.00;1.40;;;;;;;;;;5054339;28;20381;-72
2021/03/29 09:39:30;;;;;;;2.50;1.25;;;;;;;;;;5053359;28;20496;-72
2021/03/29 09:41:57;;;;;;;1.80;1.42;;;;;;;;;;5054165;28;20840;-72
2021/03/29 09:44:30;;;;;;;1.40;1.10;;;;;;;;;;5043981;28;20721;-72
2021/03/29 09:46:58;;;;;;;2.08;1.20;;;;;;;;;;5036646;28;20374;-72
2021/03/29 09:49:24;;;;;;;1.30;1.00;;;;;;;;;;5042383;28;20756;-72
2021/03/29 09:51:52;;;;;;;1.42;1.10;;;;;;;;;;5039949;28;20444;-72
2021/03/29 09:54:29;;;;;;;3.75;1.40;;;;;;;;;;5023658;28;20392;-72
2021/03/29 09:56:56;;;;;;;2.57;1.30;;;;;;;;;;5040049;28;20731;-72
2021/03/29 09:59:26;;;;;;;2.65;1.50;;;;;;;;;;5031184;28;20385;-73
2021/03/29 10:01:53;;;;;;;3.50;1.23;;;;;;;;;;5020471;28;20413;-72
2021/03/29 10:04:19;;;;;;;1.33;1.23;;;;;;;;;;5033982;28;20375;-72
2021/03/29 10:06:53;;;;;;;1.80;1.20;;;;;;;;;;5023775;28;20378;-73
2021/03/29 10:09:29;;;;;;;1.25;1.10;;;;;;;;;;5052597;28;20397;-72
2021/03/29 10:11:55;;;;;;;1.73;1.30;;;;;;;;;;5052839;28;20408;-72
2021/03/29 10:14:21;;;;;;;2.55;1.40;;;;;;;;;;5052468;28;20362;-72
2021/03/29 10:16:48;;;;;;;2.33;1.30;;;;;;;;;;5035503;28;20373;-71
2021/03/29 10:19:15;;;;;;;4.47;1.73;;;;;;;;;;5052297;28;20793;-73
2021/03/29 10:21:59;;;;;;;1.58;1.20;;;;;;;;;;5052793;28;20405;-71
2021/03/29 10:24:26;;;;;;;2.40;1.17;;;;;;;;;;5052184;28;20377;-72
2021/03/29 10:26:53;;;;;;;1.40;1.13;;;;;;;;;;5052918;28;20374;-71
2021/03/29 10:29:28;;;;;;;1.27;1.05;;;;;;;;;;5052545;28;20454;-71
2021/03/29 10:31:54;;;;;;;2.00;1.30;;;;;;;;;;5053059;28;20370;-71
2021/03/29 10:34:20;;;;;;;3.40;1.10;;;;;;;;;;5052830;28;20408;-70
2021/03/29 10:36:46;;;;;;;2.10;1.10;;;;;;;;;;5053286;28;20381;-72
2021/03/29 10:39:12;;;;;;;2.42;1.15;;;;;;;;;;5052243;28;20451;-71
2021/03/29 10:41:38;;;;;;;2.00;1.30;;;;;;;;;;5053053;28;20420;-71
2021/03/29 10:44:04;;;;;;;1.10;0.93;;;;;;;;;;5053441;28;20718;-71
2021/03/29 10:46:32;;;;;;;3.72;1.50;;;;;;;;;;5052149;28;20369;-71
2021/03/29 10:48:58;;;;;;;3.13;1.30;;;;;;;;;;5053125;28;20849;-72
2021/03/29 10:51:24;;;;;;;1.65;1.27;;;;;;;;;;5034134;28;20706;-72
2021/03/29 10:53:50;;;;;;;1.63;1.30;;;;;;;;;;5033066;28;20424;-71
2021/03/29 10:56:16;;;;;;;3.30;1.10;;;;;;;;;;5032342;28;20458;-72
2021/03/29 10:58:42;;;;;;;2.67;1.00;;;;;;;;;;5033024;28;20505;-71
2021/03/29 11:01:08;;;;;;;1.60;1.50;;;;;;;;;;5032519;28;20973;-75
2021/03/29 11:03:34;;;;;;;2.78;1.30;;;;;;;;;;5015154;28;20867;-72
2021/03/29 11:06:00;;;;;;;1.77;1.20;;;;;;;;;;5015160;28;20407;-71
2021/03/29 11:08:26;;;;;;;2.83;1.40;;;;;;;;;;5032151;28;20830;-71
2021/03/29 11:10:52;;;;;;;1.40;1.30;;;;;;;;;;5032757;28;20441;-71
2021/03/29 11:13:18;;;;;;;3.15;1.10;;;;;;;;;;5032099;28;20466;-71
2021/03/29 11:15:44;;;;;;;1.67;1.10;;;;;;;;;;5032224;28;20942;-72
2021/03/29 11:18:11;;;;;;;1.65;1.10;;;;;;;;;;5031901;28;20430;-72
2021/03/29 11:20:37;;;;;;;1.30;1.20;;;;;;;;;;5032556;28;20411;-72
2021/03/29 11:23:03;;;;;;;2.90;1.60;;;;;;;;;;5032464;28;20427;-71
2021/03/29 11:25:29;;;;;;;2.42;1.27;;;;;;;;;;5014159;28;20808;-72
2021/03/29 11:27:55;;;;;;;1.95;1.35;;;;;;;;;;5032461;28;20437;-72
2021/03/29 11:30:22;;;;;;;2.00;1.20;;;;;;;;;;5031679;28;20379;-72
2021/03/29 11:32:48;;;;;;;3.75;1.30;;;;;;;;;;5032391;28;20379;-72
2021/03/29 11:35:14;;;;;;;3.30;1.40;;;;;;;;;;5031635;28;20379;-74
2021/03/29 11:37:40;;;;;;;1.63;1.50;;;;;;;;;;5031970;28;20406;-74
2021/03/29 11:40:07;;;;;;;3.47;1.45;;;;;;;;;;5031375;28;20404;-71
2021/03/29 11:42:33;;;;;;;1.50;1.40;;;;;;;;;;5012310;28;20403;-73
2021/03/29 11:44:59;;;;;;;2.00;1.45;;;;;;;;;;5031231;28;20374;-71
2021/03/29 11:47:25;;;;;;;1.52;1.20;;;;;;;;;;5030626;28;20367;-71
2021/03/29 11:49:51;;;;;;;2.97;1.50;;;;;;;;;;5030956;28;20378;-73
2021/03/29 11:52:17;;;;;;;2.92;1.60;;;;;;;;;;5030933;28;20398;-72
2021/03/29 11:54:43;;;;;;;2.53;1.20;;;;;;;;;;5031513;28;20371;-72
2021/03/29 11:57:09;;;;;;;2.55;1.33;;;;;;;;;;5014034;28;20391;-72
2021/03/29 11:59:42;;;;;;;2.07;1.17;;;;;;;;;;5030715;28;20735;-72
2021/03/29 12:02:13;;;;;;;1.60;1.42;;;;;;;;;;5031665;28;20506;-73
2021/03/29 12:04:47;;;;;;;2.55;1.40;;;;;;;;;;5031697;28;20580;-72
2021/03/29 12:12:48;;;;;;;2.38;1.38;;;;;;;;;;5031537;28;20383;-72
2021/03/29 12:15:16;;;;;;;2.67;1.50;;;;;;;;;;5030706;28;20423;-72
2021/03/29 12:17:45;;;;;;;2.20;1.40;;;;;;;;;;5031238;28;20855;-71
2021/03/29 12:20:13;;;;;;;3.00;1.40;;;;;;;;;;5031135;28;20721;-71
2021/03/29 12:22:39;;;;;;;2.05;1.50;;;;;;;;;;5031508;28;20612;-71
2021/03/29 12:25:06;;;;;;;3.83;1.48;;;;;;;;;;5031218;28;20401;-71
2021/03/29 12:27:32;;;;;;;1.90;1.50;;;;;;;;;;5030478;28;20371;-72
2021/03/29 12:30:04;;;;;;;2.80;1.35;;;23.90;56.80;;;;;;5031282;28;20371;-71
2021/03/29 12:32:31;;;;;;;2.92;1.30;;;;;;;;;;5030564;28;20435;-71
2021/03/29 12:34:59;;;;;;;2.72;1.48;;;;;;;;;;5013182;28;20376;-71
2021/03/29 12:37:29;;;;;;;1.57;1.30;;;;;;;;;;5030550;28;20371;-72
2021/03/29 12:40:05;;;;;;;2.38;1.35;;;;;;;;;;5030927;28;20472;-73
2021/03/29 12:42:35;;;;;;;2.58;1.30;;;;;;;;;;5030470;28;20437;-72
2021/03/29 12:45:02;;;;;;;2.08;1.77;;;;;;;;;;5031430;28;20419;-73
2021/03/29 12:47:31;;;;;;;1.52;1.35;;;;;;;;;;5037453;28;20371;-72
2021/03/29 12:50:11;;;;;;;2.50;1.70;;;24.70;63.30;;;;;;5024711;28;20692;-72
2021/03/29 12:52:38;;;;;;;1.50;1.30;;;;;;;;;;5032134;28;20395;-70
2021/03/29 12:55:06;;;;;;;2.75;1.60;;;;;;;;;;5020057;28;20876;-73
2021/03/29 12:57:32;;;;;;;1.38;1.20;;;;;;;;;;5032364;28;20386;-70
2021/03/29 12:59:59;;;;;;;1.88;1.77;;;;;;;;;;5019423;28;20474;-70
2021/03/29 13:02:25;;;;;;;1.42;1.00;;;;;;;;;;5041428;28;20502;-71
2021/03/29 13:04:52;;;;;;;1.80;1.30;;;;;;;;;;5037910;28;20692;-70
2021/03/29 13:07:29;;;;;;;1.80;1.15;;;;;;;;;;5041720;28;20426;-70
2021/03/29 13:12:22;;;;;;;3.10;1.20;;;;;;;;;;5045058;28;20385;-70
2021/03/29 13:15:10;;;;;;;1.40;1.30;;;26.00;60.60;;;;;;5038656;28;20782;-70
2021/03/29 13:17:39;;;;;;;2.30;1.40;;;;;;;;;;5039912;28;20399;-69
2021/03/29 13:20:08;;;;;;;1.60;1.30;;;24.90;51.30;;;;;;5042114;28;20427;-72
2021/03/29 13:22:34;;;;;;;3.20;1.38;;;;;;;;;;5042475;28;20409;-70
2021/03/29 13:25:00;;;;;;;1.83;1.45;;;;;;;;;;5030221;28;21557;-71
2021/03/29 13:27:26;;;;;;;2.13;1.13;;;;;;;;;;5043083;28;20935;-72
2021/03/29 13:29:52;;;;;;;2.25;1.50;;;;;;;;;;5031872;28;20375;-73
2021/03/29 13:32:18;;;;;;;2.60;1.17;;;;;;;;;;5041250;28;20888;-72
2021/03/29 13:34:44;;;;;;;2.20;1.20;;;25.20;46.10;;;;;;5036211;28;20383;-72
2021/03/29 13:37:10;;;;;;;2.70;1.10;;;;;;;;;;5034897;28;20390;-72
2021/03/29 13:39:37;;;;;;;1.20;1.10;;;;;;;;;;5033322;28;20405;-72
2021/03/29 13:42:04;;;;;;;2.05;1.10;;;;;;;;;;5046461;28;20478;-71
2021/03/29 13:44:29;;;;;;;1.85;1.75;;;27.00;44.00;;;;;;5042075;28;20373;-71
2021/03/29 13:46:55;;;;;;;1.27;1.00;;;;;;;;;;5032891;28;20822;-72
2021/03/29 13:49:25;;;;;;;1.02;0.85;;;26.50;47.10;;;;;;5043029;28;20427;-70
2021/03/29 13:51:52;;;;;;;1.20;0.90;;;;;;;;;;5037356;28;20391;-73
2021/03/29 13:54:18;;;;;;;1.45;0.73;;;;;;;;;;5040953;28;20383;-75
2021/03/29 13:56:44;;;;;;;2.30;1.00;;;;;;;;;;5038878;28;20740;-71
2021/03/29 13:59:10;;;;;;;1.23;0.90;;;;;;;;;;5044558;28;20366;-71
2021/03/29 14:01:36;;;;;;;1.90;0.98;;;;;;;;;;5053228;28;20410;-72
2021/03/29 14:04:04;;;;;;;3.20;1.20;;;24.30;51.60;;;;;;5053899;28;20370;-71
2021/03/29 14:06:30;;;;;;;2.72;1.15;;;24.30;45.30;;;;;;5053202;28;20382;-72
2021/03/29 14:08:56;;;;;;;1.15;1.02;;;;;;;;;;5051650;28;20442;-72
2021/03/29 14:11:22;;;;;;;1.10;0.80;;;;;;;;;;5031650;28;20411;-71
2021/03/29 14:13:49;;;;;;;1.50;1.00;;;;;;;;;;5033269;28;20376;-70
2021/03/29 14:16:15;;;;;;;2.60;0.75;;;;;;;;;;5033669;28;20458;-70
2021/03/29 14:18:43;;;;;;;1.77;1.10;;;;;;;;;;5032656;28;20383;-70
2021/03/29 14:21:13;;;;;;;1.92;1.33;;;25.90;41.10;;;;;;5032916;28;20422;-71
2021/03/29 14:23:39;;;;;;;1.37;0.90;;;;;;;;;;5032610;28;21209;-71
2021/03/29 14:26:06;;;;;;;0.98;0.80;;;;;;;;;;5033643;28;20380;-71
2021/03/29 14:28:32;;;;;;;1.37;1.03;;;;;;;;;;5032543;28;20455;-71
2021/03/29 14:30:57;;;;;;;2.83;0.90;;;25.90;46.40;;;;;;5033355;28;20387;-71
2021/03/29 14:33:24;;;;;;;1.70;0.90;;;;;;;;;;5014535;28;20383;-76
2021/03/29 14:36:05;;;;;;;1.00;0.90;;;;;;;;;;5033368;28;20371;-71
2021/03/29 14:46:41;;;;;;;0.88;0.88;;;;;;;;;;5032567;28;20821;-71
2021/03/29 14:49:07;;;;;;;1.20;1.00;;;;;;;;;;5032624;28;20383;-71
2021/03/29 14:51:32;;;;;;;2.40;0.90;;;27.10;37.00;;;;;;5016114;28;20376;-71
2021/03/29 14:53:58;;;;;;;1.13;0.98;;;;;;;;;;5052778;28;20392;-71
2021/03/29 14:56:25;;;;;;;1.20;1.00;;;25.50;38.90;;;;;;5051523;28;20373;-71
2021/03/29 14:58:51;;;;;;;1.60;1.20;;;;;;;;;;5052847;28;20405;-72
2021/03/29 15:01:21;;;;;;;1.10;1.00;;;;;;;;;;5052694;28;20484;-71
2021/03/29 15:03:49;;;;;;;1.40;1.00;;;;;;;;;;5052196;28;20373;-71
2021/03/29 15:08:41;;;;;;;2.42;1.00;;;;;;;;;;5051873;28;20917;-71
2021/03/29 15:11:07;;;;;;;1.40;0.90;;;;;;;;;;5052628;28;20439;-71
2021/03/29 15:13:33;;;;;;;1.70;1.20;;;;;;;;;;5051602;28;20374;-71
2021/03/29 15:15:59;;;;;;;2.58;0.93;;;;;;;;;;5052527;28;20396;-71
2021/03/29 15:18:25;;;;;;;2.28;0.90;;;;;;;;;;5051466;28;20377;-72
2021/03/29 15:20:51;;;;;;;2.40;1.00;;;;;;;;;;5051859;28;20385;-72
2021/03/29 15:23:17;;;;;;;1.33;0.90;;;;;;;;;;5051616;28;20535;-71
2021/03/29 15:25:44;;;;;;;1.30;1.00;;;;;;;;;;5051430;28;21483;-71
2021/03/29 15:28:10;;;;;;;1.57;1.07;;;;;;;;;;5051813;28;20420;-72
2021/03/29 15:30:38;;;;;;;5.45;1.45;;;;;;;;;;5050790;28;20857;-72
2021/03/29 15:33:03;;;;;;;1.10;1.00;;;25.10;38.20;;;;;;5051625;28;20390;-72
2021/03/29 15:35:29;;;;;;;2.03;1.30;;;;;;;;;;5050201;28;20392;-73
2021/03/29 15:37:55;;;;;;;1.80;1.20;;;;;;;;;;5051727;28;20380;-72
2021/03/29 15:40:21;;;;;;;1.20;1.05;;;;;;;;;;5051513;28;20735;-72
2021/03/29 15:42:47;;;;;;;1.70;1.00;;;;;;;;;;5050860;28;20385;-71
2021/03/29 15:45:13;;;;;;;0.93;0.80;;;;;;;;;;5051466;28;20370;-72
2021/03/29 15:47:40;;;;;;;1.50;0.90;;;;;;;;;;5050732;28;20853;-72
2021/03/29 15:50:07;;;;;;;1.10;0.90;;;;;;;;;;5051450;28;20476;-72
2021/03/29 15:52:33;;;;;;;2.90;1.20;;;;;;;;;;5041070;28;20383;-72
2021/03/29 15:54:59;;;;;;;1.60;1.10;;;;;;;;;;5031247;28;20413;-72
2021/03/29 15:57:31;;;;;;;1.50;1.20;;;;;;;;;;5031662;28;20372;-71
2021/03/29 15:59:57;;;;;;;1.02;0.90;;;;;;;;;;5031588;28;20382;-71
2021/03/29 16:02:26;;;;;;;1.40;1.00;;;;;;;;;;5031875;28;21329;-72
2021/03/29 16:04:56;;;;;;;3.53;1.00;;;;;;;;;;5039894;28;20384;-72
2021/03/29 16:07:23;;;;;;;2.40;0.90;;;;;;;;;;5041861;28;20462;-72
2021/03/29 16:09:49;;;;;;;1.05;0.82;;;;;;;;;;5034111;28;20385;-72
2021/03/29 16:12:15;;;;;;;0.88;0.73;;;;;;;;;;5035891;28;21647;-72
2021/03/29 16:14:41;;;;;;;1.02;0.70;;;;;;;;;;5031370;28;20376;-71
2021/03/29 16:17:08;;;;;;;2.67;1.10;;;;;;;;;;5034401;28;20383;-73
2021/03/29 16:19:34;;;;;;;2.30;1.00;;;;;;;;;;5036166;28;20388;-71
2021/03/29 16:22:01;;;;;;;1.27;1.00;;;;;;;;;;5036882;28;20405;-71